Time;durP1;ratioP1;P1;durP2;ratioP2;P2;SDS_P1;SDS_P2;PMS_P1;PMS_P2;Temp;Humidity;BMP_temperature;BMP_pressure;BME280_temperature;BME280_humidity;BME280_pressure;Samples;Min_cycle;Max_cycle;Signal;HPM_P1;HPM_P2
2022/05/12 00:01:16;;;;;;;3.97;2.00;;;12.40;99.90;;;;;;5064143;28;20052;-68
2022/05/12 00:03:41;;;;;;;5.63;2.00;;;12.40;99.90;;;;;;5057913;28;20040;-68
2022/05/12 00:06:08;;;;;;;6.60;2.15;;;12.40;99.90;;;;;;5068995;28;20044;-68
2022/05/12 00:08:35;;;;;;;5.72;1.92;;;12.40;99.90;;;;;;5068934;28;20116;-68
2022/05/12 00:11:01;;;;;;;5.35;2.10;;;12.40;99.90;;;;;;5068191;28;20118;-68
2022/05/12 00:13:27;;;;;;;4.68;2.17;;;12.30;99.90;;;;;;5068038;28;20169;-69
2022/05/12 00:15:54;;;;;;;6.68;2.00;;;12.20;99.90;;;;;;5069667;28;20127;-68
2022/05/12 00:18:20;;;;;;;7.00;1.80;;;12.10;99.90;;;;;;5069034;28;20045;-68
2022/05/12 00:20:45;;;;;;;5.88;1.83;;;12.40;99.90;;;;;;5067466;28;20051;-68
2022/05/12 00:23:14;;;;;;;5.72;1.60;;;12.00;99.90;;;;;;5067261;28;20059;-68
2022/05/12 00:25:41;;;;;;;4.90;1.70;;;12.00;99.90;;;;;;5069367;28;20040;-68
2022/05/12 00:28:08;;;;;;;4.07;1.38;;;11.80;99.90;;;;;;5068368;28;20045;-68
2022/05/12 00:30:35;;;;;;;4.43;1.45;;;12.00;99.90;;;;;;5067892;28;20345;-69
2022/05/12 00:33:01;;;;;;;4.47;1.55;;;11.80;99.90;;;;;;5069029;28;20127;-68
2022/05/12 00:35:27;;;;;;;3.75;1.60;;;11.80;99.90;;;;;;5068049;28;20090;-68
2022/05/12 00:37:53;;;;;;;4.13;1.50;;;11.70;99.90;;;;;;5066102;28;20048;-68
2022/05/12 00:40:18;;;;;;;5.22;1.50;;;11.60;99.90;;;;;;5067969;28;20040;-68
2022/05/12 00:42:55;;;;;;;4.35;1.48;;;11.60;99.90;;;;;;5052424;28;20511;-69
2022/05/12 00:45:20;;;;;;;4.07;1.33;;;11.60;99.90;;;;;;5068606;28;20048;-68
2022/05/12 00:47:46;;;;;;;5.38;1.60;;;11.60;99.90;;;;;;5067489;28;20561;-68
2022/05/12 00:50:12;;;;;;;4.40;1.58;;;11.50;99.90;;;;;;5063147;28;20047;-68
2022/05/12 00:52:38;;;;;;;9.32;2.13;;;11.60;99.90;;;;;;5047184;28;20044;-70
2022/05/12 00:55:12;;;;;;;4.07;1.63;;;11.50;99.90;;;;;;5047860;28;20099;-68
2022/05/12 00:57:42;;;;;;;5.85;1.63;;;11.50;99.90;;;;;;5063370;28;20044;-68
2022/05/12 01:00:11;;;;;;;4.80;1.50;;;11.40;99.90;;;;;;5067635;28;20496;-68
2022/05/12 01:02:39;;;;;;;4.03;1.60;;;11.40;99.90;;;;;;5067750;28;20048;-68
2022/05/12 01:05:06;;;;;;;5.32;1.83;;;11.40;99.90;;;;;;5067559;28;20044;-68
2022/05/12 01:07:32;;;;;;;4.63;1.77;;;11.40;99.90;;;;;;5067230;28;20488;-69
2022/05/12 01:10:00;;;;;;;4.43;1.50;;;11.40;99.90;;;;;;5067935;28;20079;-68
2022/05/12 01:12:26;;;;;;;6.20;1.88;;;12.00;99.90;;;;;;5066421;28;20040;-69
2022/05/12 01:14:52;;;;;;;5.25;1.50;;;11.30;99.90;;;;;;5065421;28;20040;-68
2022/05/12 01:17:20;;;;;;;3.75;1.67;;;11.40;99.90;;;;;;5066783;28;20056;-68
2022/05/12 01:19:48;;;;;;;5.70;1.70;;;11.40;99.90;;;;;;5067637;28;20043;-68
2022/05/12 01:22:27;;;;;;;5.15;1.70;;;11.30;99.90;;;;;;5067332;28;20056;-67
2022/05/12 01:24:52;;;;;;;3.38;1.40;;;11.30;99.90;;;;;;5066830;28;20052;-68
2022/05/12 01:27:19;;;;;;;5.57;1.80;;;12.00;99.90;;;;;;5067682;28;20053;-68
2022/05/12 01:29:49;;;;;;;6.63;1.75;;;11.30;99.90;;;;;;5060826;28;20051;-68
2022/05/12 01:32:15;;;;;;;2.90;1.30;;;11.30;99.90;;;;;;5066961;28;20072;-68
2022/05/12 01:34:42;;;;;;;5.43;1.73;;;11.20;99.90;;;;;;5067780;28;20145;-68
2022/05/12 01:37:08;;;;;;;4.85;1.60;;;11.20;99.90;;;;;;5067668;28;20366;-68
2022/05/12 01:39:35;;;;;;;4.30;1.85;;;11.20;99.90;;;;;;5066825;28;20393;-69
2022/05/12 01:42:07;;;;;;;4.05;1.60;;;11.10;99.90;;;;;;5064964;28;20053;-68
2022/05/12 01:44:34;;;;;;;4.55;1.80;;;11.10;99.90;;;;;;5049789;28;20037;-69
2022/05/12 01:47:00;;;;;;;4.32;1.70;;;11.10;99.90;;;;;;5047889;28;20409;-69
2022/05/12 01:49:25;;;;;;;5.15;1.67;;;11.00;99.90;;;;;;5046412;28;20045;-69
2022/05/12 01:51:53;;;;;;;7.20;1.75;;;11.00;99.90;;;;;;5063558;28;20045;-69
2022/05/12 01:54:19;;;;;;;4.55;1.70;;;10.90;99.90;;;;;;5066179;28;20052;-69
2022/05/12 01:56:44;;;;;;;5.90;1.73;;;10.90;99.90;;;;;;5065499;28;20052;-68
2022/05/12 01:59:10;;;;;;;4.28;1.83;;;10.90;99.90;;;;;;5067254;28;20048;-68
2022/05/12 02:01:36;;;;;;;4.20;1.98;;;11.00;99.90;;;;;;5044727;28;20120;-68
2022/05/12 02:04:02;;;;;;;5.72;2.00;;;11.00;99.90;;;;;;5050019;28;20393;-69
2022/05/12 02:06:28;;;;;;;6.85;1.90;;;10.90;99.90;;;;;;5067623;28;20087;-68
2022/05/12 02:08:53;;;;;;;5.05;1.63;;;10.80;99.90;;;;;;5068153;28;20433;-68
2022/05/12 02:11:19;;;;;;;5.07;1.92;;;10.80;99.90;;;;;;5066080;28;20054;-68
2022/05/12 02:13:45;;;;;;;4.70;2.17;;;10.80;99.90;;;;;;5065263;28;20075;-68
2022/05/12 02:16:10;;;;;;;5.20;2.20;;;10.80;99.90;;;;;;5068640;28;20052;-68
2022/05/12 02:18:37;;;;;;;6.35;2.50;;;10.80;99.90;;;;;;5062682;28;20076;-68
2022/05/12 02:21:02;;;;;;;5.72;2.22;;;10.70;99.90;;;;;;5058574;28;20119;-68
2022/05/12 02:23:28;;;;;;;6.38;2.50;;;10.70;99.90;;;;;;5065505;28;20120;-68
2022/05/12 02:25:53;;;;;;;6.65;2.40;;;10.60;99.90;;;;;;5068361;28;20151;-68
2022/05/12 02:28:19;;;;;;;6.03;2.50;;;11.10;99.90;;;;;;5070056;28;20072;-68
2022/05/12 02:30:45;;;;;;;8.32;2.67;;;10.50;99.90;;;;;;5061876;28;20048;-68
2022/05/12 02:33:11;;;;;;;6.72;3.03;;;10.50;99.90;;;;;;5069678;28;20048;-68
2022/05/12 02:35:37;;;;;;;8.23;2.17;;;10.40;99.90;;;;;;5071746;28;20135;-68
2022/05/12 02:38:03;;;;;;;5.57;2.50;;;10.40;99.90;;;;;;5072255;28;20041;-69
2022/05/12 02:40:29;;;;;;;8.77;3.00;;;10.50;99.90;;;;;;5071156;28;20476;-69
2022/05/12 02:42:57;;;;;;;7.20;2.70;;;10.50;99.90;;;;;;5072794;28;20089;-68
2022/05/12 02:45:23;;;;;;;5.90;2.78;;;10.50;99.90;;;;;;5070334;28;20455;-68
2022/05/12 02:47:49;;;;;;;12.05;3.03;;;10.40;99.90;;;;;;5070947;28;20054;-68
2022/05/12 02:50:16;;;;;;;10.25;3.08;;;10.50;99.90;;;;;;5070308;28;20396;-69
2022/05/12 02:52:42;;;;;;;8.82;3.05;;;10.40;99.90;;;;;;5070314;28;20146;-68
2022/05/12 02:55:08;;;;;;;9.95;3.03;;;10.40;99.90;;;;;;5069653;28;20184;-68
2022/05/12 02:57:34;;;;;;;12.45;3.10;;;10.40;99.90;;;;;;5068679;28;20048;-69
2022/05/12 03:00:00;;;;;;;9.10;3.47;;;10.40;99.90;;;;;;5070047;28;20052;-69
2022/05/12 03:02:26;;;;;;;11.85;3.00;;;10.40;99.90;;;;;;5069255;28;20076;-69
2022/05/12 03:04:51;;;;;;;10.10;3.33;;;10.40;99.90;;;;;;5051921;28;20095;-69
2022/05/12 03:07:17;;;;;;;8.63;3.30;;;10.40;99.90;;;;;;5069379;28;20148;-68
2022/05/12 03:09:43;;;;;;;9.48;3.60;;;10.30;99.90;;;;;;5070729;28;20367;-69
2022/05/12 03:12:09;;;;;;;10.35;3.80;;;10.30;99.90;;;;;;5068177;28;20460;-69
2022/05/12 03:14:34;;;;;;;10.00;3.70;;;10.40;99.90;;;;;;5069680;28;20103;-68
2022/05/12 03:17:00;;;;;;;13.88;3.63;;;10.40;99.90;;;;;;5072241;28;20049;-68
2022/05/12 03:19:25;;;;;;;9.40;3.60;;;11.20;99.90;;;;;;5071325;28;20048;-69
2022/05/12 03:21:51;;;;;;;9.77;3.55;;;10.30;99.90;;;;;;5069995;28;20463;-69
2022/05/12 03:24:18;;;;;;;11.90;3.72;;;10.30;99.90;;;;;;5069263;28;20083;-68
2022/05/12 03:26:44;;;;;;;9.38;4.40;;;10.30;99.90;;;;;;5068505;28;20095;-68
2022/05/12 03:29:10;;;;;;;7.90;3.40;;;10.20;99.90;;;;;;5068569;28;20048;-69
2022/05/12 03:31:36;;;;;;;12.52;4.10;;;10.20;99.90;;;;;;5069265;28;20036;-69
2022/05/12 03:34:02;;;;;;;10.65;3.83;;;10.20;99.90;;;;;;5068057;28;20488;-69
2022/05/12 03:36:27;;;;;;;14.65;4.35;;;10.10;99.90;;;;;;5067927;28;20045;-67
2022/05/12 03:38:53;;;;;;;12.18;4.32;;;11.30;99.90;;;;;;5069940;28;20401;-69
2022/05/12 03:41:18;;;;;;;12.13;4.47;;;10.10;99.90;;;;;;5066856;28;20143;-68
2022/05/12 03:46:31;;;;;;;13.63;4.53;;;10.10;99.90;;;;;;5048780;28;20056;-68
2022/05/12 03:48:58;;;;;;;10.73;4.43;;;10.10;99.90;;;;;;5067844;28;20040;-69
2022/05/12 03:51:25;;;;;;;12.70;4.38;;;10.10;99.90;;;;;;5066978;28;20044;-68
2022/05/12 03:53:50;;;;;;;13.10;4.93;;;10.10;99.90;;;;;;5065969;28;20461;-68
2022/05/12 03:56:16;;;;;;;11.63;4.30;;;10.10;99.90;;;;;;5068465;28;20135;-68
2022/05/12 03:58:42;;;;;;;13.98;4.72;;;10.00;99.90;;;;;;5068222;28;20059;-68
2022/05/12 04:01:07;;;;;;;11.80;4.85;;;10.10;99.90;;;;;;5067485;28;20068;-69
2022/05/12 04:03:34;;;;;;;14.02;5.00;;;10.10;99.90;;;;;;5068027;28;20465;-69
2022/05/12 04:06:01;;;;;;;12.38;5.22;;;10.00;99.90;;;;;;5068960;28;20047;-69
2022/05/12 04:08:28;;;;;;;10.32;4.93;;;10.00;99.90;;;;;;5068249;28;20048;-69
2022/05/12 04:10:53;;;;;;;13.30;5.28;;;10.00;99.90;;;;;;5068927;28;20378;-68
2022/05/12 04:13:19;;;;;;;11.18;5.03;;;10.00;99.90;;;;;;5067923;28;20044;-68
2022/05/12 04:15:45;;;;;;;12.63;5.30;;;10.20;99.90;;;;;;5068410;28;20068;-69
2022/05/12 04:18:10;;;;;;;12.05;5.07;;;10.00;99.90;;;;;;5068960;28;20056;-68
2022/05/12 04:20:36;;;;;;;11.68;5.40;;;10.00;99.90;;;;;;5068557;28;20044;-69
2022/05/12 04:23:03;;;;;;;10.43;5.63;;;10.10;99.90;;;;;;5067526;28;20052;-68
2022/05/12 04:25:28;;;;;;;12.85;5.22;;;10.10;99.90;;;;;;5068086;28;20105;-68
2022/05/12 04:27:54;;;;;;;16.90;5.20;;;10.10;99.90;;;;;;5068006;28;20044;-69
2022/05/12 04:30:24;;;;;;;11.68;5.15;;;10.20;99.90;;;;;;5055029;28;20033;-68
2022/05/12 04:32:50;;;;;;;11.95;5.55;;;10.20;99.90;;;;;;5053208;28;20136;-69
2022/05/12 04:35:16;;;;;;;14.43;5.93;;;10.20;99.90;;;;;;5068060;28;20037;-69
2022/05/12 04:37:51;;;;;;;14.13;5.85;;;10.20;99.90;;;;;;5066744;28;20079;-68
2022/05/12 04:40:28;;;;;;;11.57;5.13;;;10.20;99.90;;;;;;5068350;28;20104;-68
2022/05/12 04:42:57;;;;;;;12.25;5.22;;;10.20;99.90;;;;;;5069204;28;21553;-69
2022/05/12 04:45:26;;;;;;;13.60;5.40;;;10.30;99.90;;;;;;5085268;28;20067;-69
2022/05/12 04:47:52;;;;;;;9.70;5.35;;;10.30;99.90;;;;;;5068305;28;20342;-68
2022/05/12 04:50:21;;;;;;;13.50;5.60;;;10.30;99.90;;;;;;5066140;28;20048;-68
2022/05/12 04:52:47;;;;;;;14.48;5.75;;;10.30;99.90;;;;;;5067349;28;20048;-68
2022/05/12 04:55:13;;;;;;;12.05;5.85;;;10.40;99.90;;;;;;5068104;28;20047;-69
2022/05/12 04:57:41;;;;;;;15.00;6.65;;;10.40;99.90;;;;;;5048481;28;20040;-68
2022/05/12 05:00:13;;;;;;;14.23;5.80;;;10.40;99.90;;;;;;5067190;28;20075;-67
2022/05/12 05:02:39;;;;;;;13.63;5.50;;;10.50;99.90;;;;;;5063435;28;20048;-67
2022/05/12 05:05:05;;;;;;;14.45;5.38;;;10.50;99.90;;;;;;5033752;28;20048;-67
2022/05/12 05:07:31;;;;;;;10.65;5.40;;;10.50;99.90;;;;;;5065807;28;20052;-69
2022/05/12 05:09:57;;;;;;;12.20;6.00;;;10.50;99.90;;;;;;5067476;28;20040;-68
2022/05/12 05:12:23;;;;;;;15.32;5.95;;;10.50;99.90;;;;;;5066305;28;20044;-69
2022/05/12 05:14:48;;;;;;;11.20;5.93;;;10.50;99.90;;;;;;5065888;28;20045;-68
2022/05/12 05:17:14;;;;;;;13.68;6.03;;;10.60;99.90;;;;;;5065654;28;20088;-68
2022/05/12 05:19:41;;;;;;;11.43;5.68;;;10.60;99.90;;;;;;5067078;28;20040;-69
2022/05/12 05:22:07;;;;;;;15.68;6.82;;;10.70;99.90;;;;;;5068500;28;20059;-68
2022/05/12 05:24:34;;;;;;;12.90;5.78;;;10.70;99.90;;;;;;5068004;28;20149;-68
2022/05/12 05:27:00;;;;;;;13.15;5.93;;;10.80;99.90;;;;;;5066571;28;20491;-67
2022/05/12 05:29:25;;;;;;;11.70;5.30;;;10.80;99.90;;;;;;5061290;28;20478;-68
2022/05/12 05:31:51;;;;;;;11.18;6.10;;;10.90;99.90;;;;;;5046084;28;20048;-68
2022/05/12 05:34:17;;;;;;;14.23;5.97;;;11.00;99.90;;;;;;5050536;28;20507;-68
2022/05/12 05:36:44;;;;;;;16.25;6.55;;;11.10;99.90;;;;;;5066495;28;20036;-68
2022/05/12 05:39:25;;;;;;;17.15;5.70;;;11.10;99.90;;;;;;5066688;28;20071;-67
2022/05/12 05:41:54;;;;;;;11.70;5.90;;;11.10;99.90;;;;;;5067022;28;20087;-68
2022/05/12 05:44:20;;;;;;;16.25;5.82;;;11.20;99.90;;;;;;5067366;28;20130;-69
2022/05/12 05:46:45;;;;;;;14.32;6.32;;;11.30;99.90;;;;;;5049525;28;20484;-68
2022/05/12 05:49:11;;;;;;;12.07;5.90;;;12.10;99.90;;;;;;5066939;28;20049;-69
2022/05/12 05:54:21;;;;;;;13.10;5.65;;;11.50;99.90;;;;;;5064176;28;20723;-68
2022/05/12 05:56:47;;;;;;;13.10;4.75;;;11.60;99.90;;;;;;5066469;28;20058;-68
2022/05/12 05:59:14;;;;;;;12.40;5.03;;;11.60;99.90;;;;;;5062719;28;20049;-69
2022/05/12 06:01:39;;;;;;;13.43;4.93;;;11.70;99.90;;;;;;5060229;28;20080;-69
2022/05/12 06:04:05;;;;;;;12.15;4.82;;;11.70;99.90;;;;;;5070331;28;20098;-69
2022/05/12 06:06:31;;;;;;;20.08;5.13;;;11.80;99.90;;;;;;5069847;28;20488;-68
2022/05/12 06:08:57;;;;;;;11.05;4.95;;;11.90;99.90;;;;;;5069576;28;20084;-69
2022/05/12 06:11:22;;;;;;;15.98;5.20;;;11.90;99.90;;;;;;5068828;28;20087;-69
2022/05/12 06:13:48;;;;;;;14.80;4.25;;;12.00;99.90;;;;;;5070311;28;20063;-68
2022/05/12 06:16:16;;;;;;;11.25;4.55;;;12.10;99.90;;;;;;5067603;28;20045;-70
2022/05/12 06:18:42;;;;;;;11.65;4.53;;;12.20;99.90;;;;;;5065854;28;20063;-69
2022/05/12 06:21:12;;;;;;;12.60;4.22;;;12.20;99.90;;;;;;5051555;28;20115;-69
2022/05/12 06:23:39;;;;;;;11.15;3.80;;;12.30;99.90;;;;;;5062786;28;20059;-69
2022/05/12 06:26:09;;;;;;;9.10;3.95;;;12.70;99.90;;;;;;5069163;28;20032;-70
2022/05/12 06:28:35;;;;;;;8.80;3.65;;;12.50;99.90;;;;;;5068374;28;20397;-69
2022/05/12 06:31:00;;;;;;;14.32;3.55;;;12.50;99.90;;;;;;5070590;28;20040;-68
2022/05/12 06:33:27;;;;;;;10.30;3.67;;;12.60;99.90;;;;;;5069530;28;20126;-69
2022/05/12 06:35:55;;;;;;;10.00;3.10;;;12.70;99.90;;;;;;5065536;28;20048;-68
2022/05/12 06:38:21;;;;;;;9.55;3.53;;;12.80;99.90;;;;;;5065856;28;20043;-69
2022/05/12 06:40:46;;;;;;;8.73;3.22;;;12.80;99.90;;;;;;5069990;28;20377;-69
2022/05/12 06:43:13;;;;;;;10.15;3.20;;;12.90;99.90;;;;;;5068692;28;20055;-69
2022/05/12 06:45:39;;;;;;;11.30;3.30;;;12.90;99.90;;;;;;5068236;28;20040;-69
2022/05/12 06:48:05;;;;;;;8.68;3.08;;;12.90;99.90;;;;;;5071188;28;20488;-69
2022/05/12 06:50:31;;;;;;;9.07;2.95;;;13.00;99.90;;;;;;5070235;28;20181;-68
2022/05/12 06:52:58;;;;;;;10.43;3.10;;;13.20;99.90;;;;;;5069473;28;20052;-68
2022/05/12 06:55:27;;;;;;;9.98;3.30;;;13.00;99.90;;;;;;5068948;28;20064;-69
2022/05/12 06:57:53;;;;;;;8.65;3.00;;;13.30;99.90;;;;;;5068250;28;20444;-69
2022/05/12 07:00:20;;;;;;;7.20;2.65;;;13.30;99.90;;;;;;5068936;28;20040;-69
2022/05/12 07:02:47;;;;;;;12.15;2.95;;;13.40;99.90;;;;;;5069171;28;20063;-69
2022/05/12 07:05:18;;;;;;;8.80;2.42;;;14.20;99.90;;;;;;5068774;28;20055;-69
2022/05/12 07:07:45;;;;;;;10.80;2.80;;;13.60;99.90;;;;;;5067108;28;20036;-68
2022/05/12 07:10:12;;;;;;;8.38;2.97;;;13.70;99.90;;;;;;5069181;28;20098;-68
2022/05/12 07:12:38;;;;;;;8.10;2.85;;;13.70;99.90;;;;;;5065274;28;20043;-67
2022/05/12 07:15:04;;;;;;;15.68;2.85;;;13.80;99.90;;;;;;5070600;28;20466;-68
2022/05/12 07:17:30;;;;;;;6.20;2.30;;;13.80;99.90;;;;;;5068449;28;20048;-68
2022/05/12 07:26:35;;;;;;;9.52;3.08;;;13.90;99.90;;;;;;5069151;28;20131;-69
2022/05/12 07:28:14;;;;;;;9.55;2.50;;;14.20;99.90;;;;;;5068046;28;20056;-68
2022/05/12 07:33:24;;;;;;;12.30;2.55;;;14.40;99.90;;;;;;5066180;28;20044;-69
2022/05/12 07:35:50;;;;;;;10.13;2.38;;;14.80;99.90;;;;;;5066793;28;20099;-69
2022/05/12 07:38:16;;;;;;;11.10;3.08;;;14.60;99.90;;;;;;5066163;28;20059;-68
2022/05/12 07:40:42;;;;;;;10.20;2.30;;;14.70;99.90;;;;;;5067708;28;20064;-67
2022/05/12 07:43:07;;;;;;;7.88;2.47;;;14.90;99.90;;;;;;5067865;28;20074;-68
2022/05/12 07:45:33;;;;;;;5.90;2.28;;;14.90;99.90;;;;;;5067399;28;20430;-68
2022/05/12 07:47:59;;;;;;;7.95;2.38;;;15.00;99.90;;;;;;5062609;28;20075;-68
2022/05/12 07:50:28;;;;;;;7.75;2.40;;;15.40;99.90;;;;;;5067689;28;20076;-69
2022/05/12 07:52:54;;;;;;;12.95;2.63;;;15.00;99.90;;;;;;5067666;28;20047;-69
2022/05/12 07:55:20;;;;;;;8.63;2.25;;;15.10;99.90;;;;;;5067915;28;20123;-68
2022/05/12 07:57:45;;;;;;;8.00;2.30;;;15.10;99.90;;;;;;5065230;28;20493;-69
2022/05/12 08:00:12;;;;;;;7.38;2.10;;;16.20;99.90;;;;;;5066703;28;20115;-69
2022/05/12 08:02:37;;;;;;;7.75;2.20;;;15.20;99.90;;;;;;5055745;28;20374;-69
2022/05/12 08:05:04;;;;;;;8.77;2.30;;;15.40;99.90;;;;;;5050558;28;20219;-69
2022/05/12 08:07:31;;;;;;;7.80;2.00;;;15.40;99.90;;;;;;5068381;28;20131;-68
2022/05/12 08:10:00;;;;;;;7.38;2.00;;;15.50;99.90;;;;;;5071519;28;20139;-68
2022/05/12 08:12:26;;;;;;;12.23;2.10;;;15.50;99.90;;;;;;5068666;28;20525;-68
2022/05/12 08:14:52;;;;;;;8.55;2.38;;;15.50;99.90;;;;;;5067851;28;20097;-68
2022/05/12 08:17:18;;;;;;;6.20;2.03;;;15.60;99.90;;;;;;5063894;28;20052;-68
2022/05/12 08:19:43;;;;;;;10.48;2.58;;;16.00;99.90;;;;;;5055093;28;20040;-69
2022/05/12 08:22:09;;;;;;;8.90;1.98;;;15.80;99.90;;;;;;5066581;28;20040;-68
2022/05/12 08:24:35;;;;;;;5.93;1.80;;;16.20;99.90;;;;;;5067281;28;20489;-68
2022/05/12 08:27:01;;;;;;;8.75;1.70;;;16.00;99.90;;;;;;5066367;28;20045;-67
2022/05/12 08:29:26;;;;;;;5.53;1.92;;;16.10;99.90;;;;;;5066461;28;20400;-67
2022/05/12 08:31:52;;;;;;;9.45;2.20;;;16.20;99.90;;;;;;5051304;28;20092;-68
2022/05/12 08:34:17;;;;;;;7.43;2.30;;;16.30;99.90;;;;;;5066738;28;20469;-68
2022/05/12 08:36:43;;;;;;;7.55;1.70;;;16.50;99.90;;;;;;5065788;28;20047;-67
2022/05/12 08:39:09;;;;;;;7.43;1.95;;;16.50;99.90;;;;;;5067243;28;20205;-68
2022/05/12 08:41:48;;;;;;;11.45;2.75;;;17.70;99.90;;;;;;5064290;28;20116;-71
2022/05/12 08:44:19;;;;;;;6.70;2.10;;;16.70;99.90;;;;;;5067853;28;20094;-71
2022/05/12 08:46:59;;;;;;;6.57;2.20;;;16.70;99.90;;;;;;5067673;28;20397;-71
2022/05/12 08:49:31;;;;;;;6.15;2.05;;;16.90;99.90;;;;;;5066548;28;20043;-70
2022/05/12 08:52:14;;;;;;;7.13;2.15;;;17.00;99.90;;;;;;5066882;28;20040;-70
2022/05/12 08:54:45;;;;;;;6.97;2.20;;;17.20;99.90;;;;;;5067346;28;20056;-68
2022/05/12 08:57:31;;;;;;;7.07;1.70;;;18.10;99.90;;;;;;5066436;28;20084;-66
2022/05/12 08:59:58;;;;;;;4.43;1.52;;;17.50;99.90;;;;;;5063925;28;20059;-68
2022/05/12 09:02:33;;;;;;;6.20;2.00;;;17.60;99.90;;;;;;5061502;28;20122;-67
2022/05/12 09:05:11;;;;;;;8.32;1.60;;;17.70;99.90;;;;;;5065049;28;20044;-68
2022/05/12 09:07:50;;;;;;;6.63;2.03;;;17.80;99.90;;;;;;5064033;28;20056;-66
2022/05/12 09:10:56;;;;;;;7.47;1.90;;;17.90;99.90;;;;;;5062070;28;20057;-69
2022/05/12 09:13:31;;;;;;;5.60;2.15;;;18.10;99.90;;;;;;5055178;28;20062;-68
2022/05/12 09:16:08;;;;;;;6.25;1.83;;;18.20;99.90;;;;;;5063789;28;20048;-68
2022/05/12 09:18:36;;;;;;;6.03;1.90;;;18.40;99.90;;;;;;5059801;28;20075;-69
2022/05/12 09:21:05;;;;;;;6.10;1.67;;;18.50;99.90;;;;;;5043706;28;20071;-69
2022/05/12 09:23:31;;;;;;;5.95;1.77;;;18.50;99.90;;;;;;5041604;28;20595;-69
2022/05/12 09:25:57;;;;;;;5.03;1.65;;;18.70;99.90;;;;;;5043837;28;20048;-69
2022/05/12 09:28:40;;;;;;;5.60;1.70;;;18.70;99.90;;;;;;5059998;28;20563;-71
2022/05/12 09:31:11;;;;;;;5.43;1.85;;;19.60;99.90;;;;;;5066092;28;20128;-71
2022/05/12 09:33:38;;;;;;;6.43;1.80;;;18.90;99.90;;;;;;5067535;28;20043;-71
2022/05/12 09:36:15;;;;;;;5.97;1.60;;;19.00;99.90;;;;;;5072389;28;20087;-68
2022/05/12 09:38:46;;;;;;;6.50;1.90;;;19.20;99.90;;;;;;5070825;28;20570;-79
2022/05/12 09:41:40;;;;;;;5.32;1.67;;;19.20;99.90;;;;;;5071325;28;20048;-69
2022/05/12 09:44:23;;;;;;;3.72;1.30;;;19.20;99.90;;;;;;5070208;28;20390;-71
2022/05/12 09:47:12;;;;;;;5.80;1.85;;;19.10;99.90;;;;;;5072678;28;20431;-72
2022/05/12 09:49:40;;;;;;;8.93;1.88;;;19.10;99.80;;;;;;5071640;28;20059;-72
2022/05/12 09:52:32;;;;;;;4.75;1.65;;;19.10;99.50;;;;;;5068698;28;20036;-73
2022/05/12 09:55:19;;;;;;;4.68;1.60;;;19.20;99.30;;;;;;5071487;28;20056;-73
2022/05/12 09:57:56;;;;;;;6.38;1.75;;;19.30;98.60;;;;;;5072642;28;20051;-72
2022/05/12 10:00:41;;;;;;;6.55;1.65;;;19.30;98.30;;;;;;5073964;28;20040;-73
2022/05/12 10:09:14;;;;;;;7.18;1.73;;;19.80;98.60;;;;;;5058031;28;20077;-72
2022/05/12 10:12:00;;;;;;;8.63;2.10;;;19.70;98.70;;;;;;5047934;28;20122;-72
2022/05/12 10:14:48;;;;;;;7.65;1.90;;;19.90;98.70;;;;;;5050098;28;20261;-72
2022/05/12 10:17:26;;;;;;;7.53;2.13;;;20.10;98.70;;;;;;5049986;28;20048;-72
2022/05/12 10:19:52;;;;;;;9.35;2.03;;;20.40;97.60;;;;;;5049835;28;20088;-72
2022/05/12 10:22:33;;;;;;;6.90;1.77;;;21.50;96.80;;;;;;5049879;28;20409;-71
2022/05/12 10:25:10;;;;;;;4.65;1.52;;;23.90;94.30;;;;;;5048610;28;20048;-72
2022/05/12 10:27:55;;;;;;;5.60;1.55;;;25.70;90.40;;;;;;5048456;28;20072;-72
2022/05/12 10:30:46;;;;;;;4.95;1.50;;;24.50;87.70;;;;;;5050135;28;20049;-72
2022/05/12 10:33:44;;;;;;;4.07;1.52;;;25.50;89.00;;;;;;5049412;28;20045;-73
2022/05/12 10:36:41;;;;;;;7.25;2.20;;;28.50;83.30;;;;;;5053458;28;20040;-73
2022/05/12 10:39:07;;;;;;;6.05;1.60;;;31.30;71.80;;;;;;5068118;28;20044;-73
2022/05/12 10:41:44;;;;;;;5.13;1.50;;;31.90;66.00;;;;;;5048738;28;20049;-73
2022/05/12 10:44:22;;;;;;;5.57;1.40;;;33.10;62.20;;;;;;5049857;28;20462;-72
2022/05/12 10:47:17;;;;;;;3.72;1.50;;;34.50;57.20;;;;;;5050685;28;20456;-72
2022/05/12 10:50:02;;;;;;;5.45;1.38;;;35.70;54.80;;;;;;5050487;28;20084;-72
2022/05/12 10:52:37;;;;;;;;;;;36.80;50.90;;;;;;5049550;28;20117;-73
2022/05/12 10:55:30;;;;;;;6.57;1.55;;;37.60;51.90;;;;;;5048067;28;19928;-73
2022/05/12 10:58:19;;;;;;;4.47;1.60;;;37.10;48.90;;;;;;5049214;28;20132;-72
2022/05/12 11:01:26;;;;;;;5.60;1.40;;;35.00;47.60;;;;;;5050258;28;20451;-72
2022/05/12 11:04:07;;;;;;;4.40;1.40;;;33.30;48.90;;;;;;5050132;28;20064;-72
2022/05/12 11:06:39;;;;;;;6.68;1.73;;;32.50;49.30;;;;;;5048230;28;20045;-73
2022/05/12 11:09:22;;;;;;;3.35;1.30;;;33.30;48.30;;;;;;5048328;28;20494;-73
2022/05/12 11:11:51;;;;;;;3.08;1.38;;;35.00;48.90;;;;;;5048561;28;20421;-73
2022/05/12 11:14:30;;;;;;;5.20;1.80;;;36.60;47.60;;;;;;5049244;28;20088;-73
2022/05/12 11:17:08;;;;;;;5.28;1.58;;;37.80;47.20;;;;;;5049413;28;20056;-74
2022/05/12 11:19:35;;;;;;;4.95;1.50;;;38.40;45.60;;;;;;5049943;28;20048;-73
2022/05/12 11:22:26;;;;;;;4.07;1.40;;;37.90;44.50;;;;;;5049004;28;20047;-73
2022/05/12 11:25:16;;;;;;;4.28;1.20;;;37.30;44.90;;;;;;5049210;28;20041;-73
2022/05/12 11:31:12;;;;;;;4.88;1.45;;;36.80;43.30;;;;;;5049354;28;20049;-73
2022/05/12 11:33:40;;;;;;;3.70;1.35;;;36.20;44.10;;;;;;5049483;28;20053;-72
2022/05/12 11:36:10;;;;;;;3.53;1.40;;;35.20;44.30;;;;;;5047920;28;20120;-72
2022/05/12 11:38:39;;;;;;;4.53;1.40;;;33.50;45.30;;;;;;5047864;28;20087;-72
2022/05/12 11:41:27;;;;;;;3.15;1.27;;;33.40;45.00;;;;;;5066510;28;20086;-73
2022/05/12 11:47:31;;;;;;;4.63;1.15;;;33.10;45.90;;;;;;5068985;28;20048;-73
2022/05/12 11:50:24;;;;;;;3.92;1.38;;;33.40;46.30;;;;;;5069297;28;20040;-73
2022/05/12 11:53:03;;;;;;;5.07;1.40;;;34.20;45.50;;;;;;5068304;28;20063;-73
2022/05/12 11:55:30;;;;;;;3.60;1.25;;;34.50;45.80;;;;;;5066895;28;20530;-73
2022/05/12 11:58:05;;;;;;;4.00;1.48;;;33.50;45.60;;;;;;5066134;28;20062;-73
2022/05/12 12:00:33;;;;;;;4.43;1.60;;;31.70;46.70;;;;;;5069383;28;20040;-72
2022/05/12 12:03:19;;;;;;;4.63;1.52;;;30.20;48.40;;;;;;5069414;28;20135;-72
2022/05/12 12:05:50;;;;;;;5.10;1.75;;;28.60;49.00;;;;;;5066348;28;20079;-72
2022/05/12 12:08:31;;;;;;;6.35;1.70;;;27.40;50.60;;;;;;5068310;28;20131;-72
2022/05/12 12:11:15;;;;;;;6.47;1.55;;;26.40;51.90;;;;;;5068365;28;20528;-72
2022/05/12 12:13:45;;;;;;;4.70;1.73;;;25.70;52.90;;;;;;5068167;28;20446;-73
2022/05/12 12:16:13;;;;;;;4.55;1.65;;;25.40;53.80;;;;;;5068329;28;20055;-73
2022/05/12 12:18:39;;;;;;;6.32;1.70;;;25.40;53.70;;;;;;5056079;28;20048;-73
2022/05/12 12:21:38;;;;;;;5.00;1.70;;;24.90;54.50;;;;;;5046252;28;20045;-72
2022/05/12 12:24:22;;;;;;;3.55;1.58;;;25.10;54.40;;;;;;5048453;28;20041;-72
2022/05/12 12:27:14;;;;;;;7.65;1.55;;;26.30;53.70;;;;;;5045614;28;20044;-72
2022/05/12 12:29:49;;;;;;;6.22;1.90;;;27.30;52.40;;;;;;5047967;28;20048;-73
2022/05/12 12:32:26;;;;;;;5.80;1.70;;;26.60;52.30;;;;;;5048287;28;20040;-72
2022/05/12 12:34:54;;;;;;;5.50;1.60;;;25.70;53.30;;;;;;5048403;28;20061;-72
2022/05/12 12:37:47;;;;;;;4.47;1.50;;;25.40;54.10;;;;;;5046778;28;20083;-73
2022/05/12 12:40:30;;;;;;;4.30;1.60;;;24.50;54.50;;;;;;5045730;28;20044;-72
2022/05/12 12:42:57;;;;;;;4.57;1.50;;;24.40;55.40;;;;;;5045737;28;20056;-73
2022/05/12 12:45:23;;;;;;;5.35;1.55;;;23.60;54.80;;;;;;5047478;28;20052;-73
2022/05/12 12:48:00;;;;;;;7.47;1.40;;;23.20;54.80;;;;;;5047417;28;20142;-73
2022/05/12 12:50:46;;;;;;;4.97;1.60;;;23.00;54.90;;;;;;5047660;28;20049;-72
2022/05/12 12:56:30;;;;;;;5.28;1.60;;;22.70;56.20;;;;;;5046863;28;20056;-72
2022/05/12 12:56:32;;;;;;;4.13;1.67;;;22.30;56.90;;;;;;5045968;28;20060;-72
2022/05/12 12:59:04;;;;;;;4.13;1.67;;;22.00;58.10;;;;;;5047426;28;20390;-72
2022/05/12 13:01:51;;;;;;;6.18;1.73;;;21.90;58.10;;;;;;5047243;28;20113;-72
2022/05/12 13:04:25;;;;;;;4.95;1.58;;;21.80;59.00;;;;;;5045354;28;20125;-72
2022/05/12 13:06:56;;;;;;;2.90;1.40;;;21.70;59.40;;;;;;5047722;28;20068;-72
2022/05/12 13:09:32;;;;;;;5.43;1.50;;;21.70;59.10;;;;;;5045635;28;20052;-73
2022/05/12 13:12:20;;;;;;;6.50;1.48;;;22.00;58.40;;;;;;5045461;28;20044;-73
2022/05/12 13:14:49;;;;;;;4.97;1.42;;;21.40;59.30;;;;;;5045621;28;20053;-73
2022/05/12 13:17:28;;;;;;;3.85;1.50;;;21.40;58.70;;;;;;5047650;28;20436;-71
2022/05/12 13:19:59;;;;;;;2.70;1.42;;;21.30;58.70;;;;;;5051567;28;20045;-72
2022/05/12 13:22:50;;;;;;;3.35;1.50;;;21.20;59.40;;;;;;5086078;28;20071;-72
2022/05/12 13:25:25;;;;;;;6.47;1.70;;;21.30;59.60;;;;;;5078899;28;20219;-72
2022/05/12 13:27:53;;;;;;;4.57;1.60;;;21.40;60.60;;;;;;5086268;28;20073;-72